sensor_id;sensor_type;location;lat;lon;timestamp;temperature;humidity
7016;DHT22;3548;48.402;9.990;2022-08-21T00:01:24;16.00;99.90
7016;DHT22;3548;48.402;9.990;2022-08-21T00:03:49;16.00;99.90
7016;DHT22;3548;48.402;9.990;2022-08-21T00:06:16;15.90;99.90
7016;DHT22;3548;48.402;9.990;2022-08-21T00:08:41;15.90;99.90
7016;DHT22;3548;48.402;9.990;2022-08-21T00:11:07;15.90;99.90
7016;DHT22;3548;48.402;9.990;2022-08-21T00:13:34;15.90;99.90
7016;DHT22;3548;48.402;9.990;2022-08-21T00:16:00;15.90;99.90
7016;DHT22;3548;48.402;9.990;2022-08-21T00:18:26;15.90;99.90
7016;DHT22;3548;48.402;9.990;2022-08-21T00:20:52;15.90;99.90
7016;DHT22;3548;48.402;9.990;2022-08-21T00:23:18;15.80;99.90
7016;DHT22;3548;48.402;9.990;2022-08-21T00:25:44;15.80;99.90
7016;DHT22;3548;48.402;9.990;2022-08-21T00:28:10;15.80;99.90
7016;DHT22;3548;48.402;9.990;2022-08-21T00:30:36;15.70;99.90
7016;DHT22;3548;48.402;9.990;2022-08-21T00:33:03;15.70;99.90
7016;DHT22;3548;48.402;9.990;2022-08-21T00:35:35;15.70;99.90
7016;DHT22;3548;48.402;9.990;2022-08-21T00:38:01;15.70;99.90
7016;DHT22;3548;48.402;9.990;2022-08-21T00:43:07;15.60;99.90
7016;DHT22;3548;48.402;9.990;2022-08-21T00:45:33;15.50;99.90
7016;DHT22;3548;48.402;9.990;2022-08-21T00:48:00;15.40;99.90
7016;DHT22;3548;48.402;9.990;2022-08-21T00:50:30;15.40;99.90
7016;DHT22;3548;48.402;9.990;2022-08-21T00:52:58;15.30;99.90
7016;DHT22;3548;48.402;9.990;2022-08-21T00:55:26;15.30;99.90
7016;DHT22;3548;48.402;9.990;2022-08-21T00:57:55;15.30;99.90
7016;DHT22;3548;48.402;9.990;2022-08-21T01:00:33;15.30;99.90
7016;DHT22;3548;48.402;9.990;2022-08-21T01:03:01;15.20;99.90
7016;DHT22;3548;48.402;9.990;2022-08-21T01:05:27;15.20;99.90
7016;DHT22;3548;48.402;9.990;2022-08-21T01:07:54;15.20;99.90
7016;DHT22;3548;48.402;9.990;2022-08-21T01:10:22;15.20;99.90
7016;DHT22;3548;48.402;9.990;2022-08-21T01:12:49;15.10;99.90
7016;DHT22;3548;48.402;9.990;2022-08-21T01:15:17;15.10;99.90
7016;DHT22;3548;48.402;9.990;2022-08-21T01:17:43;15.00;99.90
7016;DHT22;3548;48.402;9.990;2022-08-21T01:20:11;15.00;99.90
7016;DHT22;3548;48.402;9.990;2022-08-21T01:22:37;15.00;99.90
7016;DHT22;3548;48.402;9.990;2022-08-21T01:25:05;14.90;99.90
7016;DHT22;3548;48.402;9.990;2022-08-21T01:27:31;14.90;99.90
7016;DHT22;3548;48.402;9.990;2022-08-21T01:29:59;14.80;99.90
7016;DHT22;3548;48.402;9.990;2022-08-21T01:32:26;14.80;99.90
7016;DHT22;3548;48.402;9.990;2022-08-21T01:34:52;14.80;99.90
7016;DHT22;3548;48.402;9.990;2022-08-21T01:37:20;14.80;99.90
7016;DHT22;3548;48.402;9.990;2022-08-21T01:39:47;14.70;99.90
7016;DHT22;3548;48.402;9.990;2022-08-21T01:42:13;14.70;99.90
7016;DHT22;3548;48.402;9.990;2022-08-21T01:44:39;14.70;99.90
7016;DHT22;3548;48.402;9.990;2022-08-21T01:47:08;14.70;99.90
7016;DHT22;3548;48.402;9.990;2022-08-21T01:49:35;14.60;99.90
7016;DHT22;3548;48.402;9.990;2022-08-21T01:52:02;14.60;99.90
7016;DHT22;3548;48.402;9.990;2022-08-21T01:54:27;14.60;99.90
7016;DHT22;3548;48.402;9.990;2022-08-21T01:56:54;14.60;99.90
7016;DHT22;3548;48.402;9.990;2022-08-21T01:59:22;14.50;99.90
7016;DHT22;3548;48.402;9.990;2022-08-21T02:01:48;14.50;99.90
7016;DHT22;3548;48.402;9.990;2022-08-21T02:04:14;14.50;99.90
7016;DHT22;3548;48.402;9.990;2022-08-21T02:06:40;14.50;99.90
7016;DHT22;3548;48.402;9.990;2022-08-21T02:09:08;14.50;99.90
7016;DHT22;3548;48.402;9.990;2022-08-21T02:11:34;14.50;99.90
7016;DHT22;3548;48.402;9.990;2022-08-21T02:14:00;14.50;99.90
7016;DHT22;3548;48.402;9.990;2022-08-21T02:16:26;14.50;99.90
7016;DHT22;3548;48.402;9.990;2022-08-21T02:18:51;14.40;99.90
7016;DHT22;3548;48.402;9.990;2022-08-21T02:21:17;14.40;99.90
7016;DHT22;3548;48.402;9.990;2022-08-21T02:23:43;14.40;99.90
7016;DHT22;3548;48.402;9.990;2022-08-21T02:26:09;14.40;99.90
7016;DHT22;3548;48.402;9.990;2022-08-21T02:28:35;14.40;99.90
7016;DHT22;3548;48.402;9.990;2022-08-21T02:31:02;14.40;99.90
7016;DHT22;3548;48.402;9.990;2022-08-21T02:33:28;14.40;99.90
7016;DHT22;3548;48.402;9.990;2022-08-21T02:35:54;14.30;99.90
7016;DHT22;3548;48.402;9.990;2022-08-21T02:38:23;14.30;99.90
7016;DHT22;3548;48.402;9.990;2022-08-21T02:40:51;14.30;99.90
7016;DHT22;3548;48.402;9.990;2022-08-21T02:43:18;14.30;99.90
7016;DHT22;3548;48.402;9.990;2022-08-21T02:45:45;14.30;99.90
7016;DHT22;3548;48.402;9.990;2022-08-21T02:48:14;14.20;99.90
7016;DHT22;3548;48.402;9.990;2022-08-21T02:50:51;14.20;99.90
7016;DHT22;3548;48.402;9.990;2022-08-21T02:53:17;14.20;99.90
7016;DHT22;3548;48.402;9.990;2022-08-21T02:55:47;14.20;99.90
7016;DHT22;3548;48.402;9.990;2022-08-21T02:58:15;14.10;99.90
7016;DHT22;3548;48.402;9.990;2022-08-21T03:00:41;14.10;99.90
7016;DHT22;3548;48.402;9.990;2022-08-21T03:03:09;14.00;99.90
7016;DHT22;3548;48.402;9.990;2022-08-21T03:05:35;13.90;99.90
7016;DHT22;3548;48.402;9.990;2022-08-21T03:08:06;13.80;99.90
7016;DHT22;3548;48.402;9.990;2022-08-21T03:10:35;13.80;99.90
7016;DHT22;3548;48.402;9.990;2022-08-21T03:13:00;13.80;99.90
7016;DHT22;3548;48.402;9.990;2022-08-21T03:15:28;13.70;99.90
7016;DHT22;3548;48.402;9.990;2022-08-21T03:17:54;13.70;99.90
7016;DHT22;3548;48.402;9.990;2022-08-21T03:20:23;13.70;99.90
7016;DHT22;3548;48.402;9.990;2022-08-21T03:22:50;13.80;99.90
7016;DHT22;3548;48.402;9.990;2022-08-21T03:25:16;13.80;99.90
7016;DHT22;3548;48.402;9.990;2022-08-21T03:27:43;13.80;99.90
7016;DHT22;3548;48.402;9.990;2022-08-21T03:30:10;13.70;99.90
7016;DHT22;3548;48.402;9.990;2022-08-21T03:32:36;13.70;99.90
7016;DHT22;3548;48.402;9.990;2022-08-21T03:35:02;13.60;99.90
7016;DHT22;3548;48.402;9.990;2022-08-21T03:37:28;13.60;99.90
7016;DHT22;3548;48.402;9.990;2022-08-21T03:39:53;13.60;99.90
7016;DHT22;3548;48.402;9.990;2022-08-21T03:42:19;13.60;99.90
7016;DHT22;3548;48.402;9.990;2022-08-21T03:44:45;13.60;99.90
7016;DHT22;3548;48.402;9.990;2022-08-21T03:47:10;13.60;99.90
7016;DHT22;3548;48.402;9.990;2022-08-21T03:49:37;13.70;99.90
7016;DHT22;3548;48.402;9.990;2022-08-21T03:52:03;13.70;99.90
7016;DHT22;3548;48.402;9.990;2022-08-21T03:54:29;13.70;99.90
7016;DHT22;3548;48.402;9.990;2022-08-21T03:56:55;13.70;99.90
7016;DHT22;3548;48.402;9.990;2022-08-21T03:59:21;13.70;99.90
7016;DHT22;3548;48.402;9.990;2022-08-21T04:01:54;13.70;99.90
7016;DHT22;3548;48.402;9.990;2022-08-21T04:04:20;13.70;99.90
7016;DHT22;3548;48.402;9.990;2022-08-21T04:06:46;13.60;99.90
7016;DHT22;3548;48.402;9.990;2022-08-21T04:09:11;13.60;99.90
7016;DHT22;3548;48.402;9.990;2022-08-21T04:11:37;13.60;99.90
7016;DHT22;3548;48.402;9.990;2022-08-21T04:14:03;13.60;99.90
7016;DHT22;3548;48.402;9.990;2022-08-21T04:16:30;13.60;99.90
7016;DHT22;3548;48.402;9.990;2022-08-21T04:18:56;13.60;99.90
7016;DHT22;3548;48.402;9.990;2022-08-21T04:21:23;13.60;99.90
7016;DHT22;3548;48.402;9.990;2022-08-21T04:23:48;13.50;99.90
7016;DHT22;3548;48.402;9.990;2022-08-21T04:26:14;13.50;99.90
7016;DHT22;3548;48.402;9.990;2022-08-21T04:28:40;13.50;99.90
7016;DHT22;3548;48.402;9.990;2022-08-21T04:31:08;13.50;99.90
7016;DHT22;3548;48.402;9.990;2022-08-21T04:33:33;13.50;99.90
7016;DHT22;3548;48.402;9.990;2022-08-21T04:35:59;13.50;99.90
7016;DHT22;3548;48.402;9.990;2022-08-21T04:38:25;13.50;99.90
7016;DHT22;3548;48.402;9.990;2022-08-21T04:40:51;13.50;99.90
7016;DHT22;3548;48.402;9.990;2022-08-21T04:43:17;13.50;99.90
7016;DHT22;3548;48.402;9.990;2022-08-21T04:45:46;13.50;99.90
7016;DHT22;3548;48.402;9.990;2022-08-21T04:48:15;13.50;99.90
7016;DHT22;3548;48.402;9.990;2022-08-21T04:53:33;13.40;99.90
7016;DHT22;3548;48.402;9.990;2022-08-21T04:56:06;13.50;99.90
7016;DHT22;3548;48.402;9.990;2022-08-21T04:58:35;13.50;99.90
7016;DHT22;3548;48.402;9.990;2022-08-21T05:01:04;13.50;99.90
7016;DHT22;3548;48.402;9.990;2022-08-21T05:03:32;13.50;99.90
7016;DHT22;3548;48.402;9.990;2022-08-21T05:05:59;13.60;99.90
7016;DHT22;3548;48.402;9.990;2022-08-21T05:08:27;13.60;99.90
7016;DHT22;3548;48.402;9.990;2022-08-21T05:10:53;13.60;99.90
7016;DHT22;3548;48.402;9.990;2022-08-21T05:13:19;13.60;99.90
7016;DHT22;3548;48.402;9.990;2022-08-21T05:15:45;13.60;99.90
7016;DHT22;3548;48.402;9.990;2022-08-21T05:18:11;13.60;99.90
7016;DHT22;3548;48.402;9.990;2022-08-21T05:20:37;13.70;99.90
7016;DHT22;3548;48.402;9.990;2022-08-21T05:23:11;13.70;99.90
7016;DHT22;3548;48.402;9.990;2022-08-21T05:25:37;13.80;99.90
7016;DHT22;3548;48.402;9.990;2022-08-21T05:28:04;13.90;99.90
7016;DHT22;3548;48.402;9.990;2022-08-21T05:30:30;13.90;99.90
7016;DHT22;3548;48.402;9.990;2022-08-21T05:32:57;13.90;99.90
7016;DHT22;3548;48.402;9.990;2022-08-21T05:35:24;14.00;99.90
7016;DHT22;3548;48.402;9.990;2022-08-21T05:37:49;14.10;99.90
7016;DHT22;3548;48.402;9.990;2022-08-21T05:40:15;14.10;99.90
7016;DHT22;3548;48.402;9.990;2022-08-21T05:42:41;14.10;99.90
7016;DHT22;3548;48.402;9.990;2022-08-21T05:45:06;14.10;99.90
7016;DHT22;3548;48.402;9.990;2022-08-21T05:47:32;14.20;99.90
7016;DHT22;3548;48.402;9.990;2022-08-21T05:49:58;14.30;99.90
7016;DHT22;3548;48.402;9.990;2022-08-21T05:52:23;14.30;99.90
7016;DHT22;3548;48.402;9.990;2022-08-21T05:54:49;14.40;99.90
7016;DHT22;3548;48.402;9.990;2022-08-21T05:57:15;14.40;99.90
7016;DHT22;3548;48.402;9.990;2022-08-21T05:59:41;14.50;99.90
7016;DHT22;3548;48.402;9.990;2022-08-21T06:02:07;14.60;99.90
7016;DHT22;3548;48.402;9.990;2022-08-21T06:04:37;14.70;99.90
7016;DHT22;3548;48.402;9.990;2022-08-21T06:07:03;14.80;99.90
7016;DHT22;3548;48.402;9.990;2022-08-21T06:09:29;15.00;99.90
7016;DHT22;3548;48.402;9.990;2022-08-21T06:11:54;15.10;99.90
7016;DHT22;3548;48.402;9.990;2022-08-21T06:14:20;15.20;99.90
7016;DHT22;3548;48.402;9.990;2022-08-21T06:16:45;15.30;99.90
7016;DHT22;3548;48.402;9.990;2022-08-21T06:19:11;15.40;99.90
7016;DHT22;3548;48.402;9.990;2022-08-21T06:21:37;15.50;99.90
7016;DHT22;3548;48.402;9.990;2022-08-21T06:24:04;15.60;99.90
7016;DHT22;3548;48.402;9.990;2022-08-21T06:26:30;15.70;99.90
7016;DHT22;3548;48.402;9.990;2022-08-21T06:28:56;15.70;99.90
7016;DHT22;3548;48.402;9.990;2022-08-21T06:31:25;15.80;99.90
7016;DHT22;3548;48.402;9.990;2022-08-21T06:33:51;15.90;99.90
7016;DHT22;3548;48.402;9.990;2022-08-21T06:36:18;16.00;99.90
7016;DHT22;3548;48.402;9.990;2022-08-21T06:38:44;16.00;99.90
7016;DHT22;3548;48.402;9.990;2022-08-21T06:41:10;16.10;99.90
7016;DHT22;3548;48.402;9.990;2022-08-21T06:43:36;16.20;99.90
7016;DHT22;3548;48.402;9.990;2022-08-21T06:46:02;16.30;99.90
7016;DHT22;3548;48.402;9.990;2022-08-21T06:48:27;16.40;99.90
7016;DHT22;3548;48.402;9.990;2022-08-21T06:50:55;16.50;99.90
7016;DHT22;3548;48.402;9.990;2022-08-21T06:53:21;16.60;99.90
7016;DHT22;3548;48.402;9.990;2022-08-21T06:55:47;16.70;99.90
7016;DHT22;3548;48.402;9.990;2022-08-21T06:58:13;16.80;99.90
7016;DHT22;3548;48.402;9.990;2022-08-21T07:00:42;16.90;99.90
7016;DHT22;3548;48.402;9.990;2022-08-21T07:03:16;17.00;99.90
7016;DHT22;3548;48.402;9.990;2022-08-21T07:05:42;17.10;99.90
7016;DHT22;3548;48.402;9.990;2022-08-21T07:08:08;17.20;99.90
7016;DHT22;3548;48.402;9.990;2022-08-21T07:10:33;17.30;99.90
7016;DHT22;3548;48.402;9.990;2022-08-21T07:12:59;17.40;99.90
7016;DHT22;3548;48.402;9.990;2022-08-21T07:15:25;17.50;99.90
7016;DHT22;3548;48.402;9.990;2022-08-21T07:17:50;17.60;99.90
7016;DHT22;3548;48.402;9.990;2022-08-21T07:20:16;17.70;99.90
7016;DHT22;3548;48.402;9.990;2022-08-21T07:22:42;17.90;99.90
7016;DHT22;3548;48.402;9.990;2022-08-21T07:25:08;18.00;99.90
7016;DHT22;3548;48.402;9.990;2022-08-21T07:27:33;18.10;99.90
7016;DHT22;3548;48.402;9.990;2022-08-21T07:29:59;18.20;99.90
7016;DHT22;3548;48.402;9.990;2022-08-21T07:32:25;18.40;99.90
7016;DHT22;3548;48.402;9.990;2022-08-21T07:34:50;18.50;99.90
7016;DHT22;3548;48.402;9.990;2022-08-21T07:37:16;18.60;99.90
7016;DHT22;3548;48.402;9.990;2022-08-21T07:39:41;18.70;99.90
7016;DHT22;3548;48.402;9.990;2022-08-21T07:42:07;18.80;99.90
7016;DHT22;3548;48.402;9.990;2022-08-21T07:44:33;18.90;99.90
7016;DHT22;3548;48.402;9.990;2022-08-21T07:47:00;19.00;99.90
7016;DHT22;3548;48.402;9.990;2022-08-21T07:49:26;19.20;99.90
7016;DHT22;3548;48.402;9.990;2022-08-21T07:51:52;19.30;99.90
7016;DHT22;3548;48.402;9.990;2022-08-21T07:54:18;19.30;99.90
7016;DHT22;3548;48.402;9.990;2022-08-21T07:56:43;19.40;99.90
7016;DHT22;3548;48.402;9.990;2022-08-21T07:59:09;19.50;99.90
7016;DHT22;3548;48.402;9.990;2022-08-21T08:01:34;19.60;99.90
7016;DHT22;3548;48.402;9.990;2022-08-21T08:04:00;19.70;99.90
7016;DHT22;3548;48.402;9.990;2022-08-21T08:06:25;19.80;99.90
7016;DHT22;3548;48.402;9.990;2022-08-21T08:08:51;20.00;99.90
7016;DHT22;3548;48.402;9.990;2022-08-21T08:11:17;20.20;99.90
7016;DHT22;3548;48.402;9.990;2022-08-21T08:13:45;20.40;99.90
7016;DHT22;3548;48.402;9.990;2022-08-21T08:16:12;20.50;99.90
7016;DHT22;3548;48.402;9.990;2022-08-21T08:18:38;20.60;99.90
7016;DHT22;3548;48.402;9.990;2022-08-21T08:21:04;20.70;99.90
7016;DHT22;3548;48.402;9.990;2022-08-21T08:23:31;20.90;99.90
7016;DHT22;3548;48.402;9.990;2022-08-21T08:25:57;21.00;99.90
7016;DHT22;3548;48.402;9.990;2022-08-21T08:28:23;21.10;99.90
7016;DHT22;3548;48.402;9.990;2022-08-21T08:30:49;21.20;99.90
7016;DHT22;3548;48.402;9.990;2022-08-21T08:33:16;21.30;99.90
7016;DHT22;3548;48.402;9.990;2022-08-21T08:35:45;21.40;99.90
7016;DHT22;3548;48.402;9.990;2022-08-21T08:38:11;21.60;99.90
7016;DHT22;3548;48.402;9.990;2022-08-21T08:40:55;21.70;99.90
7016;DHT22;3548;48.402;9.990;2022-08-21T08:43:27;21.80;99.90
7016;DHT22;3548;48.402;9.990;2022-08-21T08:45:56;22.00;99.90
7016;DHT22;3548;48.402;9.990;2022-08-21T08:51:14;22.30;99.90
7016;DHT22;3548;48.402;9.990;2022-08-21T08:53:53;22.40;99.90
7016;DHT22;3548;48.402;9.990;2022-08-21T08:56:27;22.50;99.90
7016;DHT22;3548;48.402;9.990;2022-08-21T08:58:57;22.50;99.90
7016;DHT22;3548;48.402;9.990;2022-08-21T09:01:24;22.70;99.90
7016;DHT22;3548;48.402;9.990;2022-08-21T09:03:50;22.80;99.90
7016;DHT22;3548;48.402;9.990;2022-08-21T09:06:42;23.00;99.90
7016;DHT22;3548;48.402;9.990;2022-08-21T09:21:02;23.60;99.90
7016;DHT22;3548;48.402;9.990;2022-08-21T09:26:24;23.80;96.90
7016;DHT22;3548;48.402;9.990;2022-08-21T09:28:53;23.90;96.00
7016;DHT22;3548;48.402;9.990;2022-08-21T09:31:34;23.90;92.70
7016;DHT22;3548;48.402;9.990;2022-08-21T09:34:08;23.90;91.70
7016;DHT22;3548;48.402;9.990;2022-08-21T09:36:50;23.90;90.10
7016;DHT22;3548;48.402;9.990;2022-08-21T09:42:03;24.10;88.80
7016;DHT22;3548;48.402;9.990;2022-08-21T09:44:35;24.10;86.40
7016;DHT22;3548;48.402;9.990;2022-08-21T09:47:06;24.20;86.40
7016;DHT22;3548;48.402;9.990;2022-08-21T09:49:34;24.30;87.60
7016;DHT22;3548;48.402;9.990;2022-08-21T09:52:02;24.50;86.90
7016;DHT22;3548;48.402;9.990;2022-08-21T09:54:36;24.70;86.70
7016;DHT22;3548;48.402;9.990;2022-08-21T09:59:54;24.50;87.40
7016;DHT22;3548;48.402;9.990;2022-08-21T10:02:32;24.30;86.60
7016;DHT22;3548;48.402;9.990;2022-08-21T10:05:17;24.30;85.40
7016;DHT22;3548;48.402;9.990;2022-08-21T10:07:43;24.30;84.50
7016;DHT22;3548;48.402;9.990;2022-08-21T10:10:16;24.30;84.90
7016;DHT22;3548;48.402;9.990;2022-08-21T10:15:35;24.10;82.90
7016;DHT22;3548;48.402;9.990;2022-08-21T10:21:05;24.30;82.50
7016;DHT22;3548;48.402;9.990;2022-08-21T10:26:24;24.40;80.90
7016;DHT22;3548;48.402;9.990;2022-08-21T10:29:58;24.50;81.10
7016;DHT22;3548;48.402;9.990;2022-08-21T10:35:27;24.80;78.80
7016;DHT22;3548;48.402;9.990;2022-08-21T10:40:26;25.00;79.20
7016;DHT22;3548;48.402;9.990;2022-08-21T10:43:03;25.30;76.50
7016;DHT22;3548;48.402;9.990;2022-08-21T10:46:11;25.40;77.00
7016;DHT22;3548;48.402;9.990;2022-08-21T10:49:03;25.70;79.30
7016;DHT22;3548;48.402;9.990;2022-08-21T10:51:57;26.00;77.60
7016;DHT22;3548;48.402;9.990;2022-08-21T10:54:40;26.20;76.90
7016;DHT22;3548;48.402;9.990;2022-08-21T10:57:13;26.30;75.20
7016;DHT22;3548;48.402;9.990;2022-08-21T10:59:47;26.50;75.40
7016;DHT22;3548;48.402;9.990;2022-08-21T11:02:32;26.60;74.70
7016;DHT22;3548;48.402;9.990;2022-08-21T11:07:39;26.90;71.70
7016;DHT22;3548;48.402;9.990;2022-08-21T11:10:23;26.90;72.00
7016;DHT22;3548;48.402;9.990;2022-08-21T11:12:58;27.00;72.30
7016;DHT22;3548;48.402;9.990;2022-08-21T11:15:52;27.00;70.80
7016;DHT22;3548;48.402;9.990;2022-08-21T11:18:23;27.10;70.70
7016;DHT22;3548;48.402;9.990;2022-08-21T11:23:54;27.10;70.60
7016;DHT22;3548;48.402;9.990;2022-08-21T11:26:32;27.20;69.80
7016;DHT22;3548;48.402;9.990;2022-08-21T11:29:09;27.30;68.80
7016;DHT22;3548;48.402;9.990;2022-08-21T11:34:49;27.40;66.60
7016;DHT22;3548;48.402;9.990;2022-08-21T11:43:37;27.60;67.70
7016;DHT22;3548;48.402;9.990;2022-08-21T11:46:31;27.70;66.40
7016;DHT22;3548;48.402;9.990;2022-08-21T11:52:04;27.60;63.50
7016;DHT22;3548;48.402;9.990;2022-08-21T11:57:13;27.30;62.50
7016;DHT22;3548;48.402;9.990;2022-08-21T12:02:37;27.00;63.70
7016;DHT22;3548;48.402;9.990;2022-08-21T12:05:09;27.10;61.90
7016;DHT22;3548;48.402;9.990;2022-08-21T12:07:42;27.00;61.50
7016;DHT22;3548;48.402;9.990;2022-08-21T12:10:12;27.10;61.80
7016;DHT22;3548;48.402;9.990;2022-08-21T12:12:40;27.20;61.50
7016;DHT22;3548;48.402;9.990;2022-08-21T12:17:51;27.10;61.70
7016;DHT22;3548;48.402;9.990;2022-08-21T12:23:12;27.20;62.00
7016;DHT22;3548;48.402;9.990;2022-08-21T12:25:48;27.30;62.00
7016;DHT22;3548;48.402;9.990;2022-08-21T12:28:24;27.40;62.00
7016;DHT22;3548;48.402;9.990;2022-08-21T12:30:51;27.40;61.70
7016;DHT22;3548;48.402;9.990;2022-08-21T12:35:48;27.50;61.90
7016;DHT22;3548;48.402;9.990;2022-08-21T12:38:22;27.70;60.40
7016;DHT22;3548;48.402;9.990;2022-08-21T12:40:57;27.70;59.90
7016;DHT22;3548;48.402;9.990;2022-08-21T12:43:43;27.50;61.00
7016;DHT22;3548;48.402;9.990;2022-08-21T12:46:20;27.20;62.00
7016;DHT22;3548;48.402;9.990;2022-08-21T12:48:48;26.90;62.50
7016;DHT22;3548;48.402;9.990;2022-08-21T12:51:17;26.80;63.30
7016;DHT22;3548;48.402;9.990;2022-08-21T12:53:52;26.60;64.50
7016;DHT22;3548;48.402;9.990;2022-08-21T12:56:22;26.30;65.20
7016;DHT22;3548;48.402;9.990;2022-08-21T12:58:50;26.00;66.20
7016;DHT22;3548;48.402;9.990;2022-08-21T13:01:29;25.90;66.80
7016;DHT22;3548;48.402;9.990;2022-08-21T13:03:59;25.70;66.60
7016;DHT22;3548;48.402;9.990;2022-08-21T13:06:30;25.60;67.00
7016;DHT22;3548;48.402;9.990;2022-08-21T13:09:04;25.70;67.20
7016;DHT22;3548;48.402;9.990;2022-08-21T13:11:31;25.60;66.80
7016;DHT22;3548;48.402;9.990;2022-08-21T13:13:57;25.40;67.60
7016;DHT22;3548;48.402;9.990;2022-08-21T13:16:27;25.30;67.80
7016;DHT22;3548;48.402;9.990;2022-08-21T13:19:16;25.10;68.10
7016;DHT22;3548;48.402;9.990;2022-08-21T13:21:43;24.90;68.90
7016;DHT22;3548;48.402;9.990;2022-08-21T13:24:19;24.90;70.20
7016;DHT22;3548;48.402;9.990;2022-08-21T13:26:46;24.80;69.20
7016;DHT22;3548;48.402;9.990;2022-08-21T13:29:14;24.80;68.60
7016;DHT22;3548;48.402;9.990;2022-08-21T13:31:46;24.80;68.30
7016;DHT22;3548;48.402;9.990;2022-08-21T13:34:12;24.80;68.90
7016;DHT22;3548;48.402;9.990;2022-08-21T13:36:41;24.80;68.60
7016;DHT22;3548;48.402;9.990;2022-08-21T13:39:09;24.80;68.70
7016;DHT22;3548;48.402;9.990;2022-08-21T13:41:38;24.70;68.30
7016;DHT22;3548;48.402;9.990;2022-08-21T13:44:21;24.70;68.30
7016;DHT22;3548;48.402;9.990;2022-08-21T13:46:52;24.80;68.40
7016;DHT22;3548;48.402;9.990;2022-08-21T13:49:20;25.00;68.80
7016;DHT22;3548;48.402;9.990;2022-08-21T13:51:48;25.40;68.50
7016;DHT22;3548;48.402;9.990;2022-08-21T13:54:28;25.80;67.10
7016;DHT22;3548;48.402;9.990;2022-08-21T13:56:55;26.20;66.40
7016;DHT22;3548;48.402;9.990;2022-08-21T13:59:29;26.50;65.50
7016;DHT22;3548;48.402;9.990;2022-08-21T14:02:08;26.80;65.70
7016;DHT22;3548;48.402;9.990;2022-08-21T14:04:38;27.00;64.40
7016;DHT22;3548;48.402;9.990;2022-08-21T14:07:17;27.30;64.20
7016;DHT22;3548;48.402;9.990;2022-08-21T14:09:45;27.50;63.90
7016;DHT22;3548;48.402;9.990;2022-08-21T14:12:16;27.60;61.70
7016;DHT22;3548;48.402;9.990;2022-08-21T14:14:42;27.70;61.20
7016;DHT22;3548;48.402;9.990;2022-08-21T14:17:16;27.70;60.00
7016;DHT22;3548;48.402;9.990;2022-08-21T14:19:51;27.60;59.70
7016;DHT22;3548;48.402;9.990;2022-08-21T14:24:48;27.20;61.60
7016;DHT22;3548;48.402;9.990;2022-08-21T14:27:17;27.40;60.80
7016;DHT22;3548;48.402;9.990;2022-08-21T14:29:43;27.50;61.00
7016;DHT22;3548;48.402;9.990;2022-08-21T14:32:30;27.70;60.30
7016;DHT22;3548;48.402;9.990;2022-08-21T14:35:00;27.80;59.60
7016;DHT22;3548;48.402;9.990;2022-08-21T14:37:26;27.90;59.20
7016;DHT22;3548;48.402;9.990;2022-08-21T14:39:52;27.90;58.80
7016;DHT22;3548;48.402;9.990;2022-08-21T14:42:17;27.80;58.90
7016;DHT22;3548;48.402;9.990;2022-08-21T14:44:43;27.80;59.60
7016;DHT22;3548;48.402;9.990;2022-08-21T14:47:09;27.80;59.50
7016;DHT22;3548;48.402;9.990;2022-08-21T14:49:35;27.70;59.10
7016;DHT22;3548;48.402;9.990;2022-08-21T14:52:01;27.50;59.10
7016;DHT22;3548;48.402;9.990;2022-08-21T14:54:28;27.50;59.70
7016;DHT22;3548;48.402;9.990;2022-08-21T14:56:54;27.50;60.50
7016;DHT22;3548;48.402;9.990;2022-08-21T14:59:21;27.50;59.70
7016;DHT22;3548;48.402;9.990;2022-08-21T15:01:46;27.60;59.60
7016;DHT22;3548;48.402;9.990;2022-08-21T15:04:12;27.60;59.70
7016;DHT22;3548;48.402;9.990;2022-08-21T15:06:38;27.60;59.80
7016;DHT22;3548;48.402;9.990;2022-08-21T15:09:03;27.40;59.20
7016;DHT22;3548;48.402;9.990;2022-08-21T15:11:30;27.20;59.50
7016;DHT22;3548;48.402;9.990;2022-08-21T15:14:01;27.10;60.30
7016;DHT22;3548;48.402;9.990;2022-08-21T15:16:28;27.00;60.60
7016;DHT22;3548;48.402;9.990;2022-08-21T15:18:56;26.70;59.90
7016;DHT22;3548;48.402;9.990;2022-08-21T15:21:22;26.50;60.30
7016;DHT22;3548;48.402;9.990;2022-08-21T15:23:48;26.40;61.00
7016;DHT22;3548;48.402;9.990;2022-08-21T15:26:13;26.50;60.30
7016;DHT22;3548;48.402;9.990;2022-08-21T15:28:39;26.60;59.80
7016;DHT22;3548;48.402;9.990;2022-08-21T15:31:05;26.60;59.90
7016;DHT22;3548;48.402;9.990;2022-08-21T15:33:31;26.60;60.90
7016;DHT22;3548;48.402;9.990;2022-08-21T15:35:57;26.60;60.40
7016;DHT22;3548;48.402;9.990;2022-08-21T15:38:23;26.50;59.90
7016;DHT22;3548;48.402;9.990;2022-08-21T15:40:49;26.30;60.60
7016;DHT22;3548;48.402;9.990;2022-08-21T15:43:27;26.30;61.00
7016;DHT22;3548;48.402;9.990;2022-08-21T15:45:53;26.30;60.80
7016;DHT22;3548;48.402;9.990;2022-08-21T15:48:19;26.40;61.40
7016;DHT22;3548;48.402;9.990;2022-08-21T15:50:45;26.30;60.40
7016;DHT22;3548;48.402;9.990;2022-08-21T15:53:11;26.30;60.80
7016;DHT22;3548;48.402;9.990;2022-08-21T15:55:36;26.00;61.20
7016;DHT22;3548;48.402;9.990;2022-08-21T15:58:03;25.90;61.60
7016;DHT22;3548;48.402;9.990;2022-08-21T16:00:32;25.90;61.70
7016;DHT22;3548;48.402;9.990;2022-08-21T16:02:59;26.00;62.00
7016;DHT22;3548;48.402;9.990;2022-08-21T16:05:25;26.10;60.80
7016;DHT22;3548;48.402;9.990;2022-08-21T16:07:51;26.20;61.60
7016;DHT22;3548;48.402;9.990;2022-08-21T16:10:19;26.20;60.60
7016;DHT22;3548;48.402;9.990;2022-08-21T16:12:57;26.20;60.40
7016;DHT22;3548;48.402;9.990;2022-08-21T16:15:25;26.00;61.20
7016;DHT22;3548;48.402;9.990;2022-08-21T16:17:52;25.70;61.70
7016;DHT22;3548;48.402;9.990;2022-08-21T16:20:23;25.50;62.30
7016;DHT22;3548;48.402;9.990;2022-08-21T16:22:51;25.40;63.10
7016;DHT22;3548;48.402;9.990;2022-08-21T16:25:16;25.40;62.40
7016;DHT22;3548;48.402;9.990;2022-08-21T16:27:46;25.50;62.90
7016;DHT22;3548;48.402;9.990;2022-08-21T16:30:14;25.50;62.80
7016;DHT22;3548;48.402;9.990;2022-08-21T16:32:40;25.40;62.90
7016;DHT22;3548;48.402;9.990;2022-08-21T16:35:06;25.30;62.50
7016;DHT22;3548;48.402;9.990;2022-08-21T16:37:32;25.30;62.90
7016;DHT22;3548;48.402;9.990;2022-08-21T16:39:57;25.40;64.30
7016;DHT22;3548;48.402;9.990;2022-08-21T16:42:25;25.60;64.20
7016;DHT22;3548;48.402;9.990;2022-08-21T16:44:52;25.70;64.60
7016;DHT22;3548;48.402;9.990;2022-08-21T16:47:18;25.90;64.60
7016;DHT22;3548;48.402;9.990;2022-08-21T16:49:43;26.00;64.30
7016;DHT22;3548;48.402;9.990;2022-08-21T16:52:10;26.10;64.20
7016;DHT22;3548;48.402;9.990;2022-08-21T16:54:36;26.10;64.10
7016;DHT22;3548;48.402;9.990;2022-08-21T16:57:02;26.20;64.00
7016;DHT22;3548;48.402;9.990;2022-08-21T16:59:28;26.30;64.40
7016;DHT22;3548;48.402;9.990;2022-08-21T17:01:54;26.30;63.30
7016;DHT22;3548;48.402;9.990;2022-08-21T17:04:20;26.20;63.70
7016;DHT22;3548;48.402;9.990;2022-08-21T17:06:47;26.20;64.10
7016;DHT22;3548;48.402;9.990;2022-08-21T17:09:12;26.20;64.30
7016;DHT22;3548;48.402;9.990;2022-08-21T17:11:40;26.20;63.70
7016;DHT22;3548;48.402;9.990;2022-08-21T17:14:13;26.20;63.70
7016;DHT22;3548;48.402;9.990;2022-08-21T17:16:43;26.30;64.10
7016;DHT22;3548;48.402;9.990;2022-08-21T17:19:09;26.30;62.90
7016;DHT22;3548;48.402;9.990;2022-08-21T17:21:37;26.30;62.80
7016;DHT22;3548;48.402;9.990;2022-08-21T17:24:03;26.40;62.30
7016;DHT22;3548;48.402;9.990;2022-08-21T17:26:29;26.30;61.30
7016;DHT22;3548;48.402;9.990;2022-08-21T17:28:55;26.10;61.60